Time;durP1;ratioP1;P1;durP2;ratioP2;P2;SDS_P1;SDS_P2;PMS_P1;PMS_P2;Temp;Humidity;BMP_temperature;BMP_pressure;BME280_temperature;BME280_humidity;BME280_pressure;Samples;Min_cycle;Max_cycle;Signal;HPM_P1;HPM_P2
2021/08/05 00:01:47;;;;;;;18.42;13.63;;;16.60;87.30;;;;;;5054205;28;20049;-48
2021/08/05 00:04:13;;;;;;;21.58;13.65;;;16.60;87.30;;;;;;5054407;28;20032;-50
2021/08/05 00:06:38;;;;;;;17.38;14.90;;;16.60;87.40;;;;;;5054200;28;20067;-49
2021/08/05 00:09:04;;;;;;;17.23;14.32;;;16.50;87.50;;;;;;5054264;28;20393;-49
2021/08/05 00:11:30;;;;;;;19.27;14.73;;;16.50;87.80;;;;;;5053907;28;20388;-48
2021/08/05 00:13:56;;;;;;;16.73;14.93;;;16.50;87.90;;;;;;5054062;28;20030;-46
2021/08/05 00:16:22;;;;;;;19.98;16.20;;;16.50;88.00;;;;;;5053844;28;20037;-47
2021/08/05 00:18:48;;;;;;;16.20;13.93;;;16.50;87.80;;;;;;5054265;28;20124;-47
2021/08/05 00:21:17;;;;;;;16.25;14.52;;;16.50;87.70;;;;;;5053771;28;20025;-48
2021/08/05 00:23:42;;;;;;;20.08;14.80;;;16.50;87.80;;;;;;5053711;28;20021;-47
2021/08/05 00:26:08;;;;;;;16.73;14.50;;;16.50;87.90;;;;;;5035335;28;20553;-50
2021/08/05 00:28:34;;;;;;;17.77;15.15;;;16.50;88.00;;;;;;5053673;28;20036;-48
2021/08/05 00:31:00;;;;;;;16.50;14.70;;;16.50;88.10;;;;;;5053745;28;20075;-47
2021/08/05 00:33:25;;;;;;;21.52;16.85;;;16.50;88.40;;;;;;5053846;28;20409;-48
2021/08/05 00:35:51;;;;;;;19.48;16.42;;;16.60;88.20;;;;;;5053868;28;20025;-49
2021/08/05 00:38:17;;;;;;;17.17;15.10;;;16.60;87.70;;;;;;5053661;28;20036;-48
2021/08/05 00:40:43;;;;;;;17.42;15.48;;;16.60;87.70;;;;;;5053678;28;20029;-47
2021/08/05 00:43:09;;;;;;;17.92;14.32;;;16.60;87.90;;;;;;5053354;28;20457;-50
2021/08/05 00:45:34;;;;;;;16.27;14.68;;;16.60;87.80;;;;;;5053474;28;20075;-48
2021/08/05 00:48:00;;;;;;;17.60;14.40;;;16.60;87.80;;;;;;5053620;28;20033;-48
2021/08/05 00:50:26;;;;;;;15.18;13.57;;;16.60;87.90;;;;;;5053482;28;20079;-50
2021/08/05 00:52:52;;;;;;;16.35;13.13;;;16.60;88.00;;;;;;5053519;28;20124;-47
2021/08/05 00:55:19;;;;;;;19.50;14.50;;;16.60;88.10;;;;;;5053195;28;20495;-48
2021/08/05 00:57:44;;;;;;;18.50;15.70;;;16.60;88.00;;;;;;5053200;28;20128;-47
2021/08/05 01:00:11;;;;;;;16.48;14.80;;;16.60;87.80;;;;;;5052960;28;20112;-48
2021/08/05 01:02:43;;;;;;;17.08;14.77;;;16.50;87.90;;;;;;5052910;28;20029;-49
2021/08/05 01:05:10;;;;;;;17.02;14.40;;;16.50;87.90;;;;;;5053806;28;20031;-50
2021/08/05 01:07:42;;;;;;;17.95;15.95;;;16.50;88.20;;;;;;5052763;28;20091;-47
2021/08/05 01:10:14;;;;;;;27.27;17.83;;;16.50;88.30;;;;;;5053090;28;20099;-46
2021/08/05 01:12:42;;;;;;;21.10;16.85;;;16.50;88.30;;;;;;5051410;28;20488;-48
2021/08/05 01:15:25;;;;;;;20.67;15.80;;;16.50;88.20;;;;;;5051256;28;20404;-48
2021/08/05 01:18:01;;;;;;;19.85;15.40;;;16.40;88.40;;;;;;5052739;28;20021;-47
2021/08/05 01:20:28;;;;;;;20.27;15.95;;;16.40;88.60;;;;;;5052512;28;20056;-49
2021/08/05 01:23:31;;;;;;;23.20;15.80;;;16.40;88.80;;;;;;5052378;28;20020;-51
2021/08/05 01:26:10;;;;;;;18.52;15.25;;;16.30;89.00;;;;;;5052848;28;20029;-52
2021/08/05 01:28:40;;;;;;;20.50;17.05;;;16.30;89.30;;;;;;5051287;28;20084;-52
2021/08/05 01:31:07;;;;;;;19.20;15.07;;;16.30;89.40;;;;;;5052294;28;20079;-49
2021/08/05 01:33:36;;;;;;;20.23;16.33;;;16.30;89.50;;;;;;5051692;28;20423;-48
2021/08/05 01:36:03;;;;;;;20.50;17.75;;;16.30;89.50;;;;;;5052182;28;20107;-47
2021/08/05 01:38:32;;;;;;;32.05;20.15;;;16.30;89.50;;;;;;5054498;28;20123;-47
2021/08/05 01:40:59;;;;;;;19.90;17.45;;;16.50;89.00;;;;;;5055273;28;20021;-48
2021/08/05 01:43:26;;;;;;;21.23;18.13;;;16.40;88.70;;;;;;5055293;28;20025;-49
2021/08/05 01:45:53;;;;;;;21.20;17.08;;;16.30;89.00;;;;;;5055404;28;20354;-49
2021/08/05 01:48:19;;;;;;;20.25;18.10;;;16.30;89.40;;;;;;5055218;28;20021;-51
2021/08/05 01:50:47;;;;;;;30.02;19.17;;;16.40;88.80;;;;;;5055616;28;20028;-37
2021/08/05 01:53:17;;;;;;;20.67;18.20;;;16.40;88.90;;;;;;5055388;28;20044;-37
2021/08/05 01:55:44;;;;;;;25.33;17.45;;;16.50;88.40;;;;;;5055318;28;20051;-37
2021/08/05 01:58:09;;;;;;;19.65;16.80;;;16.40;88.60;;;;;;5055537;28;20112;-37
2021/08/05 02:00:35;;;;;;;20.17;17.15;;;16.30;89.30;;;;;;5055079;28;20188;-37
2021/08/05 02:03:03;;;;;;;20.08;17.45;;;16.30;89.30;;;;;;5055214;28;20028;-37
2021/08/05 02:05:54;;;;;;;20.20;17.45;;;16.30;89.50;;;;;;5055021;28;20052;-36
2021/08/05 02:08:22;;;;;;;26.15;17.90;;;16.30;89.60;;;;;;5055355;28;20111;-36
2021/08/05 02:10:49;;;;;;;25.80;18.35;;;16.30;89.50;;;;;;5055101;28;20025;-37
2021/08/05 02:13:22;;;;;;;21.83;18.02;;;16.30;89.80;;;;;;5055163;28;20035;-37
2021/08/05 02:15:54;;;;;;;23.15;18.77;;;16.30;89.80;;;;;;5055305;28;20372;-36
2021/08/05 02:18:27;;;;;;;23.83;20.15;;;16.30;89.80;;;;;;5055136;28;20025;-37
2021/08/05 02:20:54;;;;;;;24.13;20.73;;;16.30;89.70;;;;;;5054576;28;20039;-37
2021/08/05 02:23:21;;;;;;;23.05;19.45;;;16.40;89.20;;;;;;5054925;28;20140;-37
2021/08/05 02:25:51;;;;;;;23.33;18.98;;;16.40;89.10;;;;;;5054852;28;20021;-37
2021/08/05 02:28:22;;;;;;;30.85;20.63;;;16.40;89.20;;;;;;5054749;28;20024;-37
2021/08/05 02:30:49;;;;;;;25.37;19.80;;;16.50;89.30;;;;;;5014509;28;1143784;-37
2021/08/05 02:33:16;;;;;;;26.23;19.17;;;16.40;88.90;;;;;;5056175;28;20025;-37
2021/08/05 02:35:44;;;;;;;22.08;18.40;;;16.40;89.00;;;;;;5055957;28;20087;-37
2021/08/05 02:38:10;;;;;;;20.42;18.17;;;16.40;89.20;;;;;;5056011;28;20021;-37
2021/08/05 02:40:37;;;;;;;22.92;19.02;;;16.30;89.30;;;;;;5055600;28;20047;-37
2021/08/05 02:43:06;;;;;;;26.60;20.35;;;16.30;89.50;;;;;;5055536;28;20079;-37
2021/08/05 02:45:33;;;;;;;23.85;21.35;;;16.30;89.60;;;;;;5055881;28;20025;-36
2021/08/05 02:48:00;;;;;;;25.58;20.52;;;16.40;89.00;;;;;;5055632;28;20049;-36
2021/08/05 02:50:27;;;;;;;29.10;19.30;;;16.40;89.20;;;;;;5055903;28;20052;-37
2021/08/05 02:52:53;;;;;;;27.42;21.05;;;16.40;89.00;;;;;;5055606;28;20025;-37
2021/08/05 02:55:20;;;;;;;22.20;18.08;;;16.30;89.20;;;;;;5055484;28;20048;-37
2021/08/05 02:57:47;;;;;;;24.52;19.67;;;16.30;89.40;;;;;;5055700;28;20033;-37
2021/08/05 03:00:13;;;;;;;23.95;21.35;;;16.30;90.00;;;;;;5055313;28;20033;-37
2021/08/05 03:02:41;;;;;;;24.63;21.15;;;16.30;89.90;;;;;;5054042;28;20028;-36
2021/08/05 03:05:12;;;;;;;30.45;21.92;;;16.30;89.40;;;;;;5054636;28;20365;-37
2021/08/05 03:07:38;;;;;;;28.42;22.90;;;16.30;89.20;;;;;;5055520;28;20032;-37
2021/08/05 03:10:06;;;;;;;28.33;23.17;;;16.30;89.40;;;;;;5055242;28;20389;-36
2021/08/05 03:12:32;;;;;;;29.83;25.27;;;16.30;89.60;;;;;;5055198;28;20036;-36
2021/08/05 03:14:58;;;;;;;30.48;24.73;;;16.30;89.90;;;;;;5055121;28;20021;-37
2021/08/05 03:17:24;;;;;;;28.95;23.90;;;16.40;89.20;;;;;;5055327;28;20032;-37
2021/08/05 03:19:49;;;;;;;30.50;25.40;;;16.30;89.30;;;;;;5054869;28;20025;-36
2021/08/05 03:22:15;;;;;;;30.80;23.67;;;16.30;89.60;;;;;;5055007;28;20044;-37
2021/08/05 03:24:41;;;;;;;30.25;24.40;;;16.20;89.70;;;;;;5054944;28;20449;-37
2021/08/05 03:27:08;;;;;;;25.85;22.85;;;16.20;90.00;;;;;;5055367;28;20021;-37
2021/08/05 03:29:34;;;;;;;26.88;23.45;;;16.10;90.10;;;;;;5055169;28;20021;-36
2021/08/05 03:32:00;;;;;;;30.30;23.40;;;16.10;90.30;;;;;;5054683;28;20048;-36
2021/08/05 03:34:25;;;;;;;31.85;26.02;;;16.20;90.30;;;;;;5054906;28;20108;-36
2021/08/05 03:36:51;;;;;;;30.65;26.55;;;16.20;90.30;;;;;;5054903;28;20101;-37
2021/08/05 03:39:17;;;;;;;29.17;25.13;;;16.20;90.10;;;;;;5053301;28;20496;-37
2021/08/05 03:41:43;;;;;;;33.60;27.38;;;16.20;90.00;;;;;;5054700;28;20033;-36
2021/08/05 03:44:08;;;;;;;36.65;26.30;;;16.20;89.90;;;;;;5054450;28;20017;-36
2021/08/05 03:46:34;;;;;;;30.25;26.33;;;16.30;89.90;;;;;;5054561;28;20013;-36
2021/08/05 03:49:00;;;;;;;34.10;26.27;;;16.30;89.90;;;;;;5054317;28;20032;-36
2021/08/05 03:51:25;;;;;;;33.80;26.38;;;16.20;90.20;;;;;;5054478;28;20028;-36
2021/08/05 03:53:51;;;;;;;34.88;26.98;;;16.30;89.80;;;;;;5054312;28;20100;-36
2021/08/05 03:56:17;;;;;;;36.78;26.20;;;16.30;89.80;;;;;;5053238;28;20473;-36
2021/08/05 03:58:42;;;;;;;37.17;27.90;;;16.30;90.30;;;;;;5053292;28;20104;-36
2021/08/05 04:01:08;;;;;;;30.90;26.55;;;16.20;90.10;;;;;;5053628;28;20033;-36
2021/08/05 04:03:34;;;;;;;41.38;28.52;;;16.20;90.20;;;;;;5054371;28;20021;-37
2021/08/05 04:06:00;;;;;;;33.45;27.70;;;16.30;90.20;;;;;;5054459;28;20456;-36
2021/08/05 04:08:26;;;;;;;32.92;28.10;;;16.20;90.00;;;;;;5054137;28;20091;-36
2021/08/05 04:10:51;;;;;;;36.28;29.05;;;16.20;90.20;;;;;;5054046;28;20082;-36
2021/08/05 04:13:18;;;;;;;33.80;28.17;;;16.20;90.50;;;;;;5053808;28;20025;-36
2021/08/05 04:15:44;;;;;;;36.13;28.73;;;16.10;90.30;;;;;;5054026;28;20082;-36
2021/08/05 04:18:10;;;;;;;35.35;27.60;;;16.30;90.30;;;;;;5053884;28;20021;-36
2021/08/05 04:20:36;;;;;;;30.95;26.45;;;16.20;90.10;;;;;;5054249;28;20028;-36
2021/08/05 04:23:02;;;;;;;35.53;26.60;;;16.10;90.50;;;;;;5053915;28;20021;-36
2021/08/05 04:25:28;;;;;;;35.00;28.50;;;16.10;90.50;;;;;;5054271;28;20356;-37
2021/08/05 04:27:53;;;;;;;36.90;29.90;;;16.20;90.50;;;;;;5053788;28;20032;-36
2021/08/05 04:30:21;;;;;;;38.90;29.83;;;16.30;90.20;;;;;;5053503;28;20021;-36
2021/08/05 04:32:47;;;;;;;36.55;29.38;;;16.30;89.90;;;;;;5053865;28;20064;-36
2021/08/05 04:35:13;;;;;;;41.08;30.52;;;16.30;90.20;;;;;;5053470;28;20098;-36
2021/08/05 04:37:57;;;;;;;36.83;29.77;;;16.20;90.10;;;;;;5053876;28;20033;-36
2021/08/05 04:40:24;;;;;;;36.92;28.83;;;16.30;90.00;;;;;;5053693;28;20056;-46
2021/08/05 04:42:50;;;;;;;34.33;28.38;;;16.30;89.90;;;;;;5054305;28;20063;-36
2021/08/05 04:45:16;;;;;;;36.53;28.33;;;16.20;90.10;;;;;;5053349;28;20104;-36
2021/08/05 04:47:59;;;;;;;43.20;31.45;;;16.20;90.20;;;;;;5053111;28;20358;-36
2021/08/05 04:50:27;;;;;;;35.08;30.35;;;16.20;90.40;;;;;;5053199;28;20024;-36
2021/08/05 04:52:54;;;;;;;34.28;30.55;;;16.30;90.30;;;;;;5053378;28;20072;-36
2021/08/05 04:55:20;;;;;;;37.63;30.23;;;16.30;90.30;;;;;;5053096;28;20385;-36
2021/08/05 04:57:50;;;;;;;40.15;30.23;;;16.30;90.30;;;;;;5052975;28;20061;-36
2021/08/05 05:00:23;;;;;;;;;;;16.30;90.30;;;;;;5051707;28;20025;-36
2021/08/05 05:02:49;;;;;;;38.75;29.98;;;16.30;90.40;;;;;;5052842;28;19905;-36
2021/08/05 05:05:15;;;;;;;33.42;28.63;;;16.40;89.90;;;;;;5053252;28;20029;-36
2021/08/05 05:07:41;;;;;;;38.40;29.98;;;16.40;89.90;;;;;;5053638;28;20048;-39
2021/08/05 05:10:07;;;;;;;36.95;29.02;;;16.30;89.90;;;;;;5051470;28;20061;-36
2021/08/05 05:12:34;;;;;;;40.15;29.17;;;16.20;90.40;;;;;;5051271;28;20043;-36
2021/08/05 05:14:59;;;;;;;36.53;29.13;;;16.30;90.70;;;;;;5052864;28;20025;-36
2021/08/05 05:17:25;;;;;;;40.20;30.95;;;16.40;90.50;;;;;;5052818;28;20499;-36
2021/08/05 05:19:51;;;;;;;38.53;29.95;;;16.40;90.20;;;;;;5052779;28;20069;-36
2021/08/05 05:22:16;;;;;;;33.92;30.08;;;16.50;90.00;;;;;;5052607;28;20376;-38
2021/08/05 05:24:42;;;;;;;38.78;29.48;;;16.60;89.80;;;;;;5052822;28;20105;-36
2021/08/05 05:27:08;;;;;;;35.70;28.60;;;16.60;89.50;;;;;;5052984;28;20032;-36
2021/08/05 05:29:34;;;;;;;36.38;30.10;;;16.50;89.50;;;;;;5052569;28;20159;-36
2021/08/05 05:32:00;;;;;;;37.55;30.30;;;16.70;89.40;;;;;;5052104;28;20409;-36
2021/08/05 05:34:25;;;;;;;38.53;28.88;;;16.80;89.00;;;;;;5052528;28;20040;-36
2021/08/05 05:36:51;;;;;;;34.63;26.40;;;16.70;89.10;;;;;;5053128;28;20021;-36
2021/08/05 05:39:16;;;;;;;36.00;28.05;;;16.80;88.80;;;;;;5052433;28;20053;-37
2021/08/05 05:41:42;;;;;;;32.38;28.73;;;16.70;88.70;;;;;;5052783;28;20083;-36
2021/08/05 05:44:08;;;;;;;38.20;29.00;;;16.60;89.30;;;;;;5052664;28;20029;-36
2021/08/05 05:46:33;;;;;;;30.55;26.83;;;16.80;89.00;;;;;;5051201;28;20048;-36
2021/08/05 05:48:59;;;;;;;31.67;27.52;;;16.70;88.60;;;;;;5052784;28;20047;-36
2021/08/05 05:51:24;;;;;;;35.17;29.05;;;16.80;88.40;;;;;;5052395;28;20092;-37
2021/08/05 05:53:50;;;;;;;32.15;27.48;;;16.70;88.90;;;;;;5052573;28;20028;-37
2021/08/05 05:56:16;;;;;;;34.55;26.75;;;16.80;88.60;;;;;;5052225;28;20040;-37
2021/08/05 05:58:41;;;;;;;33.83;25.83;;;16.70;89.20;;;;;;5052422;28;20468;-37
2021/08/05 06:01:07;;;;;;;31.52;24.30;;;16.80;88.80;;;;;;5052495;28;20036;-37
2021/08/05 06:03:33;;;;;;;36.00;26.85;;;16.80;88.30;;;;;;5052609;28;20163;-37
2021/08/05 06:05:58;;;;;;;33.08;27.05;;;17.00;88.20;;;;;;5052806;28;20021;-37
2021/08/05 06:08:24;;;;;;;34.80;27.00;;;17.10;87.40;;;;;;5052969;28;20082;-37
2021/08/05 06:10:50;;;;;;;32.00;26.08;;;17.20;86.90;;;;;;5052903;28;20418;-37
2021/08/05 06:13:15;;;;;;;32.88;26.60;;;17.30;86.60;;;;;;5052205;28;20029;-37
2021/08/05 06:15:41;;;;;;;29.70;25.42;;;17.30;86.20;;;;;;5052213;28;20111;-37
2021/08/05 06:18:06;;;;;;;32.33;26.00;;;17.40;85.90;;;;;;5052653;28;20376;-37
2021/08/05 06:20:32;;;;;;;29.42;25.50;;;17.30;86.90;;;;;;5052363;28;20062;-37
2021/08/05 06:22:58;;;;;;;28.77;25.67;;;17.30;86.50;;;;;;5052579;28;20086;-38
2021/08/05 06:25:24;;;;;;;30.35;23.60;;;17.50;86.20;;;;;;5056147;28;20380;-37
2021/08/05 06:27:50;;;;;;;33.15;24.90;;;17.50;85.80;;;;;;5056429;28;20048;-38
2021/08/05 06:30:17;;;;;;;28.58;25.45;;;17.30;86.40;;;;;;5056058;28;20029;-38
2021/08/05 06:32:42;;;;;;;32.55;25.30;;;17.40;86.60;;;;;;5054463;28;20059;-38
2021/08/05 06:35:09;;;;;;;35.17;25.27;;;17.70;85.70;;;;;;5055796;28;20033;-38
2021/08/05 06:37:35;;;;;;;28.95;24.52;;;17.70;85.70;;;;;;5054468;28;20078;-38
2021/08/05 06:40:04;;;;;;;35.53;26.80;;;17.80;85.10;;;;;;5055457;28;20029;-36
2021/08/05 06:42:34;;;;;;;39.15;28.60;;;17.70;84.90;;;;;;5055536;28;20020;-36
2021/08/05 06:45:00;;;;;;;34.63;27.10;;;17.80;84.70;;;;;;5054442;28;20446;-36
2021/08/05 06:47:26;;;;;;;31.50;26.10;;;17.80;85.00;;;;;;5053879;28;20031;-36
2021/08/05 06:49:51;;;;;;;36.17;25.63;;;17.90;84.60;;;;;;5055376;28;20025;-37
2021/08/05 06:52:17;;;;;;;32.47;26.80;;;18.00;84.20;;;;;;5055468;28;20103;-36
2021/08/05 06:54:43;;;;;;;34.20;27.90;;;18.20;83.90;;;;;;5055015;28;20036;-37
2021/08/05 06:57:08;;;;;;;34.20;26.17;;;18.20;83.50;;;;;;5054982;28;20029;-37
2021/08/05 06:59:34;;;;;;;35.65;28.33;;;18.30;82.70;;;;;;5055074;28;20033;-38
2021/08/05 07:02:00;;;;;;;37.17;27.83;;;18.40;81.90;;;;;;5055380;28;20025;-38
2021/08/05 07:04:26;;;;;;;35.22;27.10;;;18.40;82.00;;;;;;5055549;28;20021;-37
2021/08/05 07:06:52;;;;;;;33.67;26.23;;;18.80;80.70;;;;;;5037432;28;20519;-37
2021/08/05 07:09:18;;;;;;;31.90;26.05;;;18.80;80.70;;;;;;5055570;28;20055;-37
2021/08/05 07:11:43;;;;;;;35.85;27.08;;;19.00;79.60;;;;;;5055689;28;20464;-37
2021/08/05 07:14:10;;;;;;;31.98;26.02;;;18.80;80.50;;;;;;5055262;28;20060;-37
2021/08/05 07:16:36;;;;;;;33.65;26.95;;;19.20;79.20;;;;;;5054943;28;20017;-37
2021/08/05 07:19:01;;;;;;;34.25;26.05;;;19.20;79.00;;;;;;5054841;28;20033;-37
2021/08/05 07:21:27;;;;;;;34.63;26.73;;;19.00;80.00;;;;;;5054889;28;20050;-37
2021/08/05 07:23:53;;;;;;;32.83;25.58;;;18.80;80.10;;;;;;5056020;28;20021;-38
2021/08/05 07:26:19;;;;;;;32.20;26.65;;;19.00;80.20;;;;;;5054001;28;20025;-38
2021/08/05 07:28:44;;;;;;;33.03;26.02;;;19.10;79.00;;;;;;5055780;28;20027;-38
2021/08/05 07:31:10;;;;;;;38.47;27.30;;;19.10;79.70;;;;;;5055257;28;20060;-39
2021/08/05 07:33:36;;;;;;;34.92;26.67;;;19.00;79.50;;;;;;5055077;28;20029;-37
2021/08/05 07:36:02;;;;;;;40.03;29.20;;;18.80;80.00;;;;;;5052241;28;20393;-37
2021/08/05 07:38:27;;;;;;;38.03;28.63;;;18.90;80.00;;;;;;5055134;28;20029;-38
2021/08/05 07:40:53;;;;;;;38.65;28.92;;;19.30;78.10;;;;;;5053436;28;20025;-38
2021/08/05 07:43:19;;;;;;;32.45;26.83;;;19.70;76.80;;;;;;5053504;28;20104;-38
2021/08/05 07:45:45;;;;;;;33.80;28.35;;;20.20;75.60;;;;;;5054502;28;20397;-37
2021/08/05 07:48:11;;;;;;;36.10;29.52;;;20.40;74.00;;;;;;5054228;28;20017;-37
2021/08/05 07:50:37;;;;;;;33.85;26.60;;;20.10;75.00;;;;;;5052511;28;20029;-37
2021/08/05 07:53:03;;;;;;;34.83;25.10;;;20.50;73.60;;;;;;5053971;28;20029;-37
2021/08/05 07:55:33;;;;;;;31.35;25.20;;;21.20;70.50;;;;;;5052565;28;20445;-37
2021/08/05 07:57:58;;;;;;;29.00;23.63;;;21.70;68.90;;;;;;5054140;28;20020;-37
2021/08/05 08:00:24;;;;;;;28.38;22.20;;;21.90;69.30;;;;;;5053882;28;20036;-37
2021/08/05 08:02:50;;;;;;;30.48;23.95;;;21.80;69.40;;;;;;5054142;28;20119;-38
2021/08/05 08:05:16;;;;;;;27.10;21.33;;;22.30;67.10;;;;;;5053960;28;20428;-37
2021/08/05 08:07:42;;;;;;;28.48;20.73;;;22.80;65.50;;;;;;5053828;28;20100;-38
2021/08/05 08:10:09;;;;;;;27.70;21.33;;;23.40;63.60;;;;;;5054306;28;20048;-38
2021/08/05 08:12:35;;;;;;;25.33;20.23;;;23.50;62.90;;;;;;5053790;28;20048;-37
2021/08/05 08:15:01;;;;;;;24.83;20.15;;;22.80;64.80;;;;;;5053150;28;20029;-37
2021/08/05 08:17:27;;;;;;;27.75;20.90;;;23.20;62.90;;;;;;5054180;28;20538;-37
2021/08/05 08:19:53;;;;;;;23.80;18.83;;;23.80;60.10;;;;;;5051433;28;20468;-37
2021/08/05 08:22:18;;;;;;;23.95;19.88;;;23.90;59.90;;;;;;5053519;28;20090;-37
2021/08/05 08:24:44;;;;;;;22.33;19.20;;;23.30;61.80;;;;;;5053118;28;20032;-37
2021/08/05 08:27:09;;;;;;;22.35;18.55;;;22.80;63.30;;;;;;5052987;28;20105;-37
2021/08/05 08:29:35;;;;;;;20.80;17.70;;;22.80;63.80;;;;;;5052994;28;20100;-37
2021/08/05 08:32:01;;;;;;;23.20;18.15;;;23.10;62.60;;;;;;5053029;28;20049;-37
2021/08/05 08:34:27;;;;;;;20.50;17.13;;;23.30;61.60;;;;;;5052946;28;20477;-37
2021/08/05 08:36:52;;;;;;;19.08;16.17;;;23.30;61.50;;;;;;5052804;28;20029;-37
2021/08/05 08:39:21;;;;;;;18.83;15.90;;;24.20;58.50;;;;;;5053137;28;20384;-37
2021/08/05 08:41:46;;;;;;;19.33;15.98;;;24.80;56.50;;;;;;5053601;28;20021;-38
2021/08/05 08:44:14;;;;;;;24.77;18.77;;;25.10;55.60;;;;;;5051393;28;20032;-38
2021/08/05 08:46:41;;;;;;;23.50;18.40;;;25.70;54.10;;;;;;5052221;28;20017;-37
2021/08/05 08:49:08;;;;;;;20.30;16.88;;;25.80;53.30;;;;;;5051169;28;20021;-36
2021/08/05 08:51:35;;;;;;;24.67;21.45;;;26.30;52.60;;;;;;5052822;28;20477;-38
2021/08/05 08:54:07;;;;;;;27.05;22.48;;;25.50;54.30;;;;;;5052710;28;20021;-37
2021/08/05 08:56:34;;;;;;;25.52;21.98;;;23.40;61.00;;;;;;5053036;28;20025;-37
2021/08/05 08:59:00;;;;;;;25.38;22.60;;;23.00;62.50;;;;;;5051337;28;20104;-37
2021/08/05 09:01:26;;;;;;;29.52;22.42;;;22.90;62.40;;;;;;5052419;28;20021;-37
2021/08/05 09:03:52;;;;;;;29.92;24.80;;;22.40;63.60;;;;;;5052895;28;20504;-38
2021/08/05 09:06:18;;;;;;;30.33;24.50;;;22.50;63.30;;;;;;5053065;28;20057;-37
2021/08/05 09:08:44;;;;;;;28.08;23.15;;;22.80;61.90;;;;;;5052784;28;20017;-37
2021/08/05 09:11:10;;;;;;;28.83;21.60;;;23.70;59.30;;;;;;5052703;28;20036;-43
2021/08/05 09:13:36;;;;;;;22.48;18.77;;;23.80;57.90;;;;;;5052325;28;20473;-38
2021/08/05 09:16:02;;;;;;;19.25;16.35;;;24.10;56.40;;;;;;5052372;28;20063;-37
2021/08/05 09:18:34;;;;;;;20.15;18.05;;;25.20;52.10;;;;;;5052081;28;20481;-37
2021/08/05 09:21:08;;;;;;;19.92;17.80;;;24.90;52.80;;;;;;5052499;28;20072;-37
2021/08/05 09:24:03;;;;;;;20.45;13.52;;;24.80;52.40;;;;;;5052019;28;20025;-37
2021/08/05 09:26:37;;;;;;;18.80;15.43;;;23.70;52.90;;;;;;5052552;28;20017;-37
2021/08/05 09:29:09;;;;;;;16.92;14.98;;;23.70;54.70;;;;;;5051727;28;20029;-36
2021/08/05 09:31:41;;;;;;;24.17;16.85;;;23.30;56.40;;;;;;5052166;28;20045;-47
2021/08/05 09:34:11;;;;;;;18.60;15.05;;;22.80;58.60;;;;;;5052111;28;20086;-36
2021/08/05 09:36:37;;;;;;;20.85;15.43;;;23.10;57.30;;;;;;5052121;28;20051;-37
2021/08/05 09:39:21;;;;;;;22.13;17.30;;;23.30;56.90;;;;;;5051884;28;20021;-36
2021/08/05 09:42:11;;;;;;;17.50;15.60;;;23.10;58.00;;;;;;5052279;28;20070;-36
2021/08/05 09:44:36;;;;;;;17.17;14.80;;;24.00;55.10;;;;;;5051801;28;20037;-37
2021/08/05 09:47:09;;;;;;;20.77;15.85;;;24.80;52.80;;;;;;5052163;28;20025;-43
2021/08/05 09:49:55;;;;;;;18.95;14.35;;;24.60;53.10;;;;;;5051627;28;20033;-37
2021/08/05 09:52:31;;;;;;;15.48;13.85;;;24.40;53.50;;;;;;5052213;28;20036;-38
2021/08/05 09:54:59;;;;;;;14.85;13.05;;;25.90;48.40;;;;;;5050451;28;20465;-37
2021/08/05 09:57:25;;;;;;;17.20;15.00;;;26.30;47.40;;;;;;5051833;28;20143;-37
2021/08/05 10:00:07;;;;;;;21.30;16.05;;;24.60;51.30;;;;;;5055544;28;20029;-36
2021/08/05 10:02:43;;;;;;;15.40;12.75;;;22.80;56.80;;;;;;5056223;28;20380;-37
2021/08/05 10:05:21;;;;;;;17.10;13.20;;;23.50;53.10;;;;;;5055961;28;20032;-38
2021/08/05 10:07:51;;;;;;;14.25;11.32;;;23.60;53.70;;;;;;5054262;28;20078;-36
2021/08/05 10:10:20;;;;;;;15.77;11.05;;;24.30;51.30;;;;;;5055776;28;20048;-37
2021/08/05 10:12:56;;;;;;;13.85;11.25;;;25.40;48.50;;;;;;5055648;28;20380;-37
2021/08/05 10:15:23;;;;;;;13.43;10.18;;;26.70;44.50;;;;;;5054339;28;20126;-37
2021/08/05 10:17:59;;;;;;;8.95;7.78;;;27.80;41.80;;;;;;5054455;28;20555;-37
2021/08/05 10:20:27;;;;;;;11.38;8.38;;;27.40;41.80;;;;;;5055948;28;20029;-37
2021/08/05 10:22:56;;;;;;;15.60;12.85;;;26.10;45.20;;;;;;5054467;28;20037;-37
2021/08/05 10:25:25;;;;;;;11.00;9.50;;;24.80;48.70;;;;;;5055410;28;20384;-37
2021/08/05 10:27:54;;;;;;;10.73;9.63;;;24.70;48.50;;;;;;5055012;28;20385;-37
2021/08/05 10:30:20;;;;;;;11.07;10.00;;;24.30;49.00;;;;;;5053994;28;20029;-37
2021/08/05 10:32:48;;;;;;;11.27;9.80;;;25.50;46.90;;;;;;5053994;28;20477;-36
2021/08/05 10:35:14;;;;;;;11.32;9.52;;;26.10;45.30;;;;;;5055638;28;20095;-37
2021/08/05 10:37:42;;;;;;;19.67;11.20;;;26.80;43.70;;;;;;5053804;28;20029;-36
2021/08/05 10:40:10;;;;;;;11.32;10.20;;;27.50;42.40;;;;;;5037075;28;20481;-37
2021/08/05 10:42:35;;;;;;;12.60;8.90;;;27.30;42.40;;;;;;5054716;28;20059;-36
2021/08/05 10:45:02;;;;;;;10.85;8.65;;;28.00;40.90;;;;;;5055192;28;20373;-37
2021/08/05 10:47:30;;;;;;;11.00;9.27;;;28.20;40.90;;;;;;5055407;28;20024;-37
2021/08/05 10:49:58;;;;;;;12.25;9.73;;;27.70;41.80;;;;;;5055305;28;20178;-37
2021/08/05 10:52:36;;;;;;;10.50;8.55;;;26.20;45.00;;;;;;5053669;28;20028;-38
2021/08/05 10:55:18;;;;;;;15.98;10.98;;;25.80;46.40;;;;;;5055581;28;20127;-38
2021/08/05 10:57:45;;;;;;;13.50;10.35;;;25.10;47.40;;;;;;5053862;28;20028;-37
2021/08/05 11:00:19;;;;;;;14.07;11.80;;;26.00;45.40;;;;;;5054702;28;20492;-38
2021/08/05 11:02:52;;;;;;;16.73;12.65;;;26.70;42.90;;;;;;5053648;28;20025;-37
2021/08/05 11:05:24;;;;;;;12.80;11.50;;;26.30;43.20;;;;;;5053690;28;20025;-37
2021/08/05 11:08:13;;;;;;;11.82;10.65;;;26.00;44.00;;;;;;5053262;28;20461;-38
2021/08/05 11:14:00;;;;;;;13.52;9.43;;;25.20;45.40;;;;;;5053957;28;20491;-37
2021/08/05 11:16:55;;;;;;;13.57;10.23;;;25.20;47.30;;;;;;5053681;28;20116;-37
2021/08/05 11:19:29;;;;;;;17.70;10.18;;;25.10;47.80;;;;;;5052881;28;20032;-36
2021/08/05 11:21:55;;;;;;;11.52;9.55;;;24.90;48.70;;;;;;5053359;28;20024;-36
2021/08/05 11:24:45;;;;;;;13.27;10.18;;;25.00;48.10;;;;;;5052915;28;20025;-36
2021/08/05 11:27:20;;;;;;;12.32;9.73;;;24.70;48.60;;;;;;5052855;28;20023;-37
2021/08/05 11:29:48;;;;;;;12.68;11.35;;;24.30;49.90;;;;;;5054111;28;20064;-37
2021/08/05 11:32:25;;;;;;;15.50;11.68;;;23.80;49.10;;;;;;5054006;28;20106;-37
2021/08/05 11:35:00;;;;;;;15.80;12.00;;;23.00;51.70;;;;;;5054181;28;20033;-38
2021/08/05 11:37:26;;;;;;;12.98;11.55;;;23.00;53.10;;;;;;5054143;28;20033;-38
2021/08/05 11:39:57;;;;;;;15.75;11.55;;;23.00;53.20;;;;;;5052781;28;20496;-38
2021/08/05 11:42:23;;;;;;;12.57;10.50;;;22.70;54.60;;;;;;5054224;28;20063;-38
2021/08/05 11:45:10;;;;;;;20.25;12.25;;;22.40;56.60;;;;;;5054088;28;20025;-38
2021/08/05 11:47:35;;;;;;;23.38;16.98;;;21.50;64.50;;;;;;5053960;28;20037;-37
2021/08/05 11:50:06;;;;;;;28.40;20.05;;;20.20;69.90;;;;;;5054365;28;20083;-40
2021/08/05 11:52:31;;;;;;;;;;;19.50;71.00;;;;;;5054723;28;20546;-37
2021/08/05 11:54:59;;;;;;;23.10;20.65;;;19.40;71.10;;;;;;5054032;28;19905;-37
2021/08/05 11:57:27;;;;;;;21.55;18.33;;;19.30;72.10;;;;;;5053744;28;20025;-37
2021/08/05 11:59:55;;;;;;;26.45;21.95;;;19.50;72.10;;;;;;5052382;28;20056;-37
2021/08/05 12:02:26;;;;;;;28.15;20.65;;;19.60;74.20;;;;;;5052272;28;20070;-37
2021/08/05 12:04:55;;;;;;;;;;;19.70;75.20;;;;;;5054261;28;20029;-37
2021/08/05 12:07:27;;;;;;;26.38;20.73;;;19.80;76.50;;;;;;5053948;28;19957;-38
2021/08/05 12:10:04;;;;;;;31.95;23.10;;;19.40;76.90;;;;;;5053001;28;20108;-37
2021/08/05 12:12:49;;;;;;;17.50;11.70;;;19.30;78.20;;;;;;5053967;28;20504;-37
2021/08/05 12:15:22;;;;;;;11.90;9.90;;;19.30;71.70;;;;;;5053668;28;20499;-37
2021/08/05 12:17:52;;;;;;;22.05;16.77;;;19.50;70.40;;;;;;5052063;28;20388;-38
2021/08/05 12:20:32;;;;;;;17.88;14.55;;;19.70;73.70;;;;;;5053571;28;20025;-37
2021/08/05 12:23:06;;;;;;;16.80;12.95;;;19.70;75.30;;;;;;5052977;28;20457;-37
2021/08/05 12:26:01;;;;;;;18.95;13.32;;;19.70;71.50;;;;;;5051911;28;20017;-38
2021/08/05 12:28:30;;;;;;;16.98;13.27;;;19.80;72.80;;;;;;5052386;28;20020;-38
2021/08/05 12:30:58;;;;;;;23.90;19.63;;;20.20;71.30;;;;;;5053439;28;20464;-37
2021/08/05 12:33:43;;;;;;;21.63;18.63;;;20.10;75.50;;;;;;5051928;28;20028;-38
2021/08/05 12:36:17;;;;;;;26.00;22.67;;;20.40;75.80;;;;;;5051362;28;20021;-37
2021/08/05 12:38:59;;;;;;;23.33;20.42;;;21.10;74.50;;;;;;5053122;28;20079;-38